sensor_id;sensor_type;location;lat;lon;timestamp;pressure;altitude;pressure_sealevel;temperature;humidity
55685;BME280;41883;49.544;8.646;2023-03-14T00:01:15;98741.28;;;10.18;nan
55685;BME280;41883;49.544;8.646;2023-03-14T00:03:44;98741.66;;;10.15;nan
55685;BME280;41883;49.544;8.646;2023-03-14T00:06:10;98742.69;;;10.14;nan
55685;BME280;41883;49.544;8.646;2023-03-14T00:08:39;98755.06;;;10.13;nan
55685;BME280;41883;49.544;8.646;2023-03-14T00:11:06;98753.25;;;10.14;nan
55685;BME280;41883;49.544;8.646;2023-03-14T00:13:34;98761.56;;;10.11;nan
55685;BME280;41883;49.544;8.646;2023-03-14T00:16:07;98765.59;;;10.07;nan
55685;BME280;41883;49.544;8.646;2023-03-14T00:18:35;98749.91;;;10.05;nan
55685;BME280;41883;49.544;8.646;2023-03-14T00:21:07;98745.03;;;10.02;nan
55685;BME280;41883;49.544;8.646;2023-03-14T00:23:33;98750.50;;;10.00;nan
55685;BME280;41883;49.544;8.646;2023-03-14T00:26:06;98733.22;;;9.98;nan
55685;BME280;41883;49.544;8.646;2023-03-14T00:28:34;98733.22;;;9.98;nan
55685;BME280;41883;49.544;8.646;2023-03-14T00:31:03;98734.22;;;9.97;nan
55685;BME280;41883;49.544;8.646;2023-03-14T00:33:29;98730.38;;;9.99;nan
55685;BME280;41883;49.544;8.646;2023-03-14T00:36:01;98721.69;;;10.06;nan
55685;BME280;41883;49.544;8.646;2023-03-14T00:38:26;98727.59;;;10.08;nan
55685;BME280;41883;49.544;8.646;2023-03-14T00:40:52;98719.88;;;10.06;nan
55685;BME280;41883;49.544;8.646;2023-03-14T00:43:18;98725.41;;;10.11;nan
55685;BME280;41883;49.544;8.646;2023-03-14T00:45:43;98730.84;;;10.10;nan
55685;BME280;41883;49.544;8.646;2023-03-14T00:48:11;98722.31;;;10.08;nan
55685;BME280;41883;49.544;8.646;2023-03-14T00:50:38;98709.72;;;10.10;nan
55685;BME280;41883;49.544;8.646;2023-03-14T00:53:04;98719.66;;;10.08;nan
55685;BME280;41883;49.544;8.646;2023-03-14T00:55:29;98709.09;;;10.08;nan
55685;BME280;41883;49.544;8.646;2023-03-14T00:57:55;98709.09;;;10.08;nan
55685;BME280;41883;49.544;8.646;2023-03-14T01:00:20;98704.22;;;10.05;nan
55685;BME280;41883;49.544;8.646;2023-03-14T01:02:45;98720.69;;;10.07;nan
55685;BME280;41883;49.544;8.646;2023-03-14T01:05:10;98725.97;;;10.07;nan
55685;BME280;41883;49.544;8.646;2023-03-14T01:07:36;98718.44;;;10.04;nan
55685;BME280;41883;49.544;8.646;2023-03-14T01:10:02;98727.16;;;10.04;nan
55685;BME280;41883;49.544;8.646;2023-03-14T01:12:27;98724.72;;;10.03;nan
55685;BME280;41883;49.544;8.646;2023-03-14T01:14:52;98720.25;;;10.03;nan
55685;BME280;41883;49.544;8.646;2023-03-14T01:17:18;98735.91;;;10.05;nan
55685;BME280;41883;49.544;8.646;2023-03-14T01:19:43;98735.72;;;10.06;nan
55685;BME280;41883;49.544;8.646;2023-03-14T01:22:08;98717.25;;;10.06;nan
55685;BME280;41883;49.544;8.646;2023-03-14T01:24:33;98712.94;;;10.05;nan
55685;BME280;41883;49.544;8.646;2023-03-14T01:26:58;98708.88;;;10.03;nan
55685;BME280;41883;49.544;8.646;2023-03-14T01:29:23;98702.59;;;10.04;nan
55685;BME280;41883;49.544;8.646;2023-03-14T01:31:49;98702.59;;;10.04;nan
55685;BME280;41883;49.544;8.646;2023-03-14T01:34:14;98699.31;;;10.02;nan
55685;BME280;41883;49.544;8.646;2023-03-14T01:36:39;98693.84;;;10.03;nan
55685;BME280;41883;49.544;8.646;2023-03-14T01:39:04;98691.19;;;10.03;nan
55685;BME280;41883;49.544;8.646;2023-03-14T01:41:31;98696.28;;;10.05;nan
55685;BME280;41883;49.544;8.646;2023-03-14T01:43:56;98689.00;;;10.07;nan
55685;BME280;41883;49.544;8.646;2023-03-14T01:46:24;98680.28;;;10.13;nan
55685;BME280;41883;49.544;8.646;2023-03-14T01:51:19;98674.41;;;10.11;nan
55685;BME280;41883;49.544;8.646;2023-03-14T01:53:46;98677.63;;;10.13;nan
55685;BME280;41883;49.544;8.646;2023-03-14T01:56:13;98675.25;;;10.18;nan
55685;BME280;41883;49.544;8.646;2023-03-14T01:58:39;98662.66;;;10.20;nan
55685;BME280;41883;49.544;8.646;2023-03-14T02:01:06;98640.34;;;10.23;nan
55685;BME280;41883;49.544;8.646;2023-03-14T02:03:34;98638.50;;;10.23;nan
55685;BME280;41883;49.544;8.646;2023-03-14T02:06:04;98643.56;;;10.25;nan
55685;BME280;41883;49.544;8.646;2023-03-14T02:08:31;98635.88;;;10.23;nan
55685;BME280;41883;49.544;8.646;2023-03-14T02:10:56;98629.78;;;10.23;nan
55685;BME280;41883;49.544;8.646;2023-03-14T02:13:21;98634.44;;;10.27;nan
55685;BME280;41883;49.544;8.646;2023-03-14T02:15:47;98630.59;;;10.23;nan
55685;BME280;41883;49.544;8.646;2023-03-14T02:18:12;98632.59;;;10.21;nan
55685;BME280;41883;49.544;8.646;2023-03-14T02:23:04;98618.19;;;10.24;nan
55685;BME280;41883;49.544;8.646;2023-03-14T02:27:55;98606.66;;;10.31;nan
55685;BME280;41883;49.544;8.646;2023-03-14T02:30:21;98599.16;;;10.35;nan
55685;BME280;41883;49.544;8.646;2023-03-14T02:32:48;98605.88;;;10.37;nan
55685;BME280;41883;49.544;8.646;2023-03-14T02:35:21;98605.88;;;10.37;nan
55685;BME280;41883;49.544;8.646;2023-03-14T02:40:18;98603.25;;;10.37;nan
55685;BME280;41883;49.544;8.646;2023-03-14T02:42:44;98606.88;;;10.36;nan
55685;BME280;41883;49.544;8.646;2023-03-14T02:47:35;98585.97;;;10.35;nan
55685;BME280;41883;49.544;8.646;2023-03-14T02:50:08;98598.13;;;10.29;nan
55685;BME280;41883;49.544;8.646;2023-03-14T02:52:34;98591.03;;;10.30;nan
55685;BME280;41883;49.544;8.646;2023-03-14T02:54:59;98596.91;;;10.32;nan
55685;BME280;41883;49.544;8.646;2023-03-14T02:57:24;98614.59;;;10.31;nan
55685;BME280;41883;49.544;8.646;2023-03-14T02:59:50;98602.75;;;10.27;nan
55685;BME280;41883;49.544;8.646;2023-03-14T03:02:21;98606.66;;;10.31;nan
55685;BME280;41883;49.544;8.646;2023-03-14T03:04:46;98605.03;;;10.30;nan
55685;BME280;41883;49.544;8.646;2023-03-14T03:07:12;98594.22;;;10.25;nan
55685;BME280;41883;49.544;8.646;2023-03-14T03:09:37;98591.78;;;10.24;nan
55685;BME280;41883;49.544;8.646;2023-03-14T03:12:02;98587.25;;;10.17;nan
55685;BME280;41883;49.544;8.646;2023-03-14T03:14:27;98574.84;;;10.11;nan
55685;BME280;41883;49.544;8.646;2023-03-14T03:16:52;98581.34;;;10.09;nan
55685;BME280;41883;49.544;8.646;2023-03-14T03:19:18;98577.06;;;10.08;nan
55685;BME280;41883;49.544;8.646;2023-03-14T03:21:43;98562.25;;;10.07;nan
55685;BME280;41883;49.544;8.646;2023-03-14T03:24:08;98560.22;;;10.09;nan
55685;BME280;41883;49.544;8.646;2023-03-14T03:26:34;98555.97;;;10.14;nan
55685;BME280;41883;49.544;8.646;2023-03-14T03:28:59;98551.09;;;10.11;nan
55685;BME280;41883;49.544;8.646;2023-03-14T03:31:24;98542.13;;;10.06;nan
55685;BME280;41883;49.544;8.646;2023-03-14T03:33:50;98543.13;;;10.05;nan
55685;BME280;41883;49.544;8.646;2023-03-14T03:36:15;98531.56;;;10.06;nan
55685;BME280;41883;49.544;8.646;2023-03-14T03:38:40;98527.47;;;10.03;nan
55685;BME280;41883;49.544;8.646;2023-03-14T03:41:06;98520.19;;;10.05;nan
55685;BME280;41883;49.544;8.646;2023-03-14T03:43:31;98517.75;;;10.04;nan
55685;BME280;41883;49.544;8.646;2023-03-14T03:45:56;98523.19;;;9.95;nan
55685;BME280;41883;49.544;8.646;2023-03-14T03:48:22;98509.78;;;9.90;nan
55685;BME280;41883;49.544;8.646;2023-03-14T03:50:47;98505.06;;;9.86;nan
55685;BME280;41883;49.544;8.646;2023-03-14T03:53:12;98502.84;;;9.83;nan
55685;BME280;41883;49.544;8.646;2023-03-14T03:55:40;98511.13;;;9.79;nan
55685;BME280;41883;49.544;8.646;2023-03-14T03:58:05;98513.38;;;9.76;nan
55685;BME280;41883;49.544;8.646;2023-03-14T04:00:30;98510.09;;;9.74;nan
55685;BME280;41883;49.544;8.646;2023-03-14T04:02:56;98510.69;;;9.69;nan
55685;BME280;41883;49.544;8.646;2023-03-14T04:05:21;98504.16;;;9.65;nan
55685;BME280;41883;49.544;8.646;2023-03-14T04:07:47;98521.00;;;9.64;nan
55685;BME280;41883;49.544;8.646;2023-03-14T04:10:12;98511.66;;;9.62;nan
55685;BME280;41883;49.544;8.646;2023-03-14T04:12:37;98519.41;;;9.63;nan
55685;BME280;41883;49.544;8.646;2023-03-14T04:15:02;98515.75;;;9.64;nan
55685;BME280;41883;49.544;8.646;2023-03-14T04:17:28;98522.63;;;9.65;nan
55685;BME280;41883;49.544;8.646;2023-03-14T04:19:53;98513.72;;;9.66;nan
55685;BME280;41883;49.544;8.646;2023-03-14T04:22:18;98502.19;;;9.74;nan
55685;BME280;41883;49.544;8.646;2023-03-14T04:24:44;98502.78;;;9.69;nan
55685;BME280;41883;49.544;8.646;2023-03-14T04:27:09;98501.56;;;9.72;nan
55685;BME280;41883;49.544;8.646;2023-03-14T04:29:34;98490.63;;;9.75;nan
55685;BME280;41883;49.544;8.646;2023-03-14T04:31:59;98486.78;;;9.77;nan
55685;BME280;41883;49.544;8.646;2023-03-14T04:34:25;98493.88;;;9.77;nan
55685;BME280;41883;49.544;8.646;2023-03-14T04:36:50;98489.22;;;9.79;nan
55685;BME280;41883;49.544;8.646;2023-03-14T04:39:15;98483.94;;;9.79;nan
55685;BME280;41883;49.544;8.646;2023-03-14T04:41:40;98485.34;;;9.82;nan
55685;BME280;41883;49.544;8.646;2023-03-14T04:44:05;98487.00;;;9.83;nan
55685;BME280;41883;49.544;8.646;2023-03-14T04:46:31;98487.22;;;9.88;nan
55685;BME280;41883;49.544;8.646;2023-03-14T04:48:56;98489.88;;;9.88;nan
55685;BME280;41883;49.544;8.646;2023-03-14T04:51:21;98483.56;;;9.89;nan
55685;BME280;41883;49.544;8.646;2023-03-14T04:53:48;98479.53;;;9.93;nan
55685;BME280;41883;49.544;8.646;2023-03-14T04:56:13;98479.34;;;9.94;nan
55685;BME280;41883;49.544;8.646;2023-03-14T04:58:38;98475.66;;;9.95;nan
55685;BME280;41883;49.544;8.646;2023-03-14T05:01:04;98472.03;;;9.96;nan
55685;BME280;41883;49.544;8.646;2023-03-14T05:03:32;98467.19;;;10.07;nan
55685;BME280;41883;49.544;8.646;2023-03-14T05:05:57;98474.06;;;10.08;nan
55685;BME280;41883;49.544;8.646;2023-03-14T05:08:26;98467.78;;;10.09;nan
55685;BME280;41883;49.544;8.646;2023-03-14T05:10:55;98472.06;;;10.10;nan
55685;BME280;41883;49.544;8.646;2023-03-14T05:13:23;98464.34;;;10.08;nan
55685;BME280;41883;49.544;8.646;2023-03-14T05:15:48;98473.06;;;10.09;nan
55685;BME280;41883;49.544;8.646;2023-03-14T05:18:15;98466.78;;;10.10;nan
55685;BME280;41883;49.544;8.646;2023-03-14T05:20:40;98469.63;;;10.08;nan
55685;BME280;41883;49.544;8.646;2023-03-14T05:23:08;98464.75;;;10.12;nan
55685;BME280;41883;49.544;8.646;2023-03-14T05:25:35;98465.34;;;10.07;nan
55685;BME280;41883;49.544;8.646;2023-03-14T05:28:01;98465.38;;;10.14;nan
55685;BME280;41883;49.544;8.646;2023-03-14T05:30:28;98471.44;;;10.08;nan
55685;BME280;41883;49.544;8.646;2023-03-14T05:33:06;98460.28;;;10.12;nan
55685;BME280;41883;49.544;8.646;2023-03-14T05:35:31;98462.31;;;10.10;nan
55685;BME280;41883;49.544;8.646;2023-03-14T05:38:00;98457.84;;;10.11;nan
55685;BME280;41883;49.544;8.646;2023-03-14T05:40:28;98463.72;;;10.13;nan
55685;BME280;41883;49.544;8.646;2023-03-14T05:42:53;98457.63;;;10.12;nan
55685;BME280;41883;49.544;8.646;2023-03-14T05:45:19;98459.66;;;10.10;nan
55685;BME280;41883;49.544;8.646;2023-03-14T05:47:44;98450.13;;;10.09;nan
55685;BME280;41883;49.544;8.646;2023-03-14T05:50:10;98457.03;;;10.10;nan
55685;BME280;41883;49.544;8.646;2023-03-14T05:52:38;98465.16;;;10.09;nan
55685;BME280;41883;49.544;8.646;2023-03-14T05:55:04;98444.84;;;10.09;nan
55685;BME280;41883;49.544;8.646;2023-03-14T05:57:30;98447.28;;;10.11;nan
55685;BME280;41883;49.544;8.646;2023-03-14T05:59:55;98450.94;;;10.16;nan
55685;BME280;41883;49.544;8.646;2023-03-14T06:02:20;98442.00;;;10.11;nan
55685;BME280;41883;49.544;8.646;2023-03-14T06:04:45;98439.13;;;10.06;nan
55685;BME280;41883;49.544;8.646;2023-03-14T06:07:11;98447.28;;;10.11;nan
55685;BME280;41883;49.544;8.646;2023-03-14T06:09:38;98442.81;;;10.11;nan
55685;BME280;41883;49.544;8.646;2023-03-14T06:12:04;98440.38;;;10.10;nan
55685;BME280;41883;49.544;8.646;2023-03-14T06:14:33;98438.53;;;10.10;nan
55685;BME280;41883;49.544;8.646;2023-03-14T06:16:58;98440.38;;;10.10;nan
55685;BME280;41883;49.544;8.646;2023-03-14T06:19:29;98443.63;;;10.12;nan
55685;BME280;41883;49.544;8.646;2023-03-14T06:21:55;98432.88;;;10.13;nan
55685;BME280;41883;49.544;8.646;2023-03-14T06:24:20;98435.28;;;10.15;nan
55685;BME280;41883;49.544;8.646;2023-03-14T06:26:45;98440.38;;;10.16;nan
55685;BME280;41883;49.544;8.646;2023-03-14T06:29:10;98428.00;;;10.17;nan
55685;BME280;41883;49.544;8.646;2023-03-14T06:31:49;98428.41;;;10.20;nan
55685;BME280;41883;49.544;8.646;2023-03-14T06:34:14;98433.69;;;10.27;nan
55685;BME280;41883;49.544;8.646;2023-03-14T06:36:40;98437.75;;;10.23;nan
55685;BME280;41883;49.544;8.646;2023-03-14T06:39:07;98431.25;;;10.26;nan
55685;BME280;41883;49.544;8.646;2023-03-14T06:41:36;98434.91;;;10.25;nan
55685;BME280;41883;49.544;8.646;2023-03-14T06:44:01;98439.81;;;10.28;nan
55685;BME280;41883;49.544;8.646;2023-03-14T06:46:35;98439.63;;;10.29;nan
55685;BME280;41883;49.544;8.646;2023-03-14T06:49:00;98428.66;;;10.32;nan
55685;BME280;41883;49.544;8.646;2023-03-14T06:51:26;98442.47;;;10.34;nan
55685;BME280;41883;49.544;8.646;2023-03-14T06:53:51;98435.16;;;10.30;nan
55685;BME280;41883;49.544;8.646;2023-03-14T06:56:16;98434.69;;;10.19;nan
55685;BME280;41883;49.544;8.646;2023-03-14T06:58:42;98424.91;;;10.00;nan
55685;BME280;41883;49.544;8.646;2023-03-14T07:01:42;98435.03;;;9.90;nan
55685;BME280;41883;49.544;8.646;2023-03-14T07:04:04;98427.88;;;9.77;nan
55685;BME280;41883;49.544;8.646;2023-03-14T07:06:36;98429.09;;;9.74;nan
55685;BME280;41883;49.544;8.646;2023-03-14T07:09:03;98431.09;;;9.72;nan
55685;BME280;41883;49.544;8.646;2023-03-14T07:11:28;98426.63;;;9.66;nan
55685;BME280;41883;49.544;8.646;2023-03-14T07:13:54;98427.84;;;9.64;nan
55685;BME280;41883;49.544;8.646;2023-03-14T07:16:19;98426.19;;;9.63;nan
55685;BME280;41883;49.544;8.646;2023-03-14T07:18:45;98422.75;;;9.62;nan
55685;BME280;41883;49.544;8.646;2023-03-14T07:21:10;98424.81;;;9.67;nan
55685;BME280;41883;49.544;8.646;2023-03-14T07:23:36;98420.78;;;9.71;nan
55685;BME280;41883;49.544;8.646;2023-03-14T07:26:01;98426.66;;;9.79;nan
55685;BME280;41883;49.544;8.646;2023-03-14T07:28:26;98433.03;;;9.92;nan
55685;BME280;41883;49.544;8.646;2023-03-14T07:30:53;98427.13;;;10.03;nan
55685;BME280;41883;49.544;8.646;2023-03-14T07:33:18;98434.69;;;10.13;nan
55685;BME280;41883;49.544;8.646;2023-03-14T07:35:43;98419.66;;;10.20;nan
55685;BME280;41883;49.544;8.646;2023-03-14T07:38:09;98433.53;;;10.29;nan
55685;BME280;41883;49.544;8.646;2023-03-14T07:40:37;98424.19;;;10.33;nan
55685;BME280;41883;49.544;8.646;2023-03-14T07:43:02;98427.22;;;10.36;nan
55685;BME280;41883;49.544;8.646;2023-03-14T07:45:28;98422.56;;;10.45;nan
55685;BME280;41883;49.544;8.646;2023-03-14T07:47:53;98426.44;;;10.49;nan
55685;BME280;41883;49.544;8.646;2023-03-14T07:50:22;98431.31;;;10.52;nan
55685;BME280;41883;49.544;8.646;2023-03-14T07:52:47;98430.50;;;10.58;nan
55685;BME280;41883;49.544;8.646;2023-03-14T07:55:12;98438.63;;;10.63;nan
55685;BME280;41883;49.544;8.646;2023-03-14T07:57:38;98430.28;;;10.67;nan
55685;BME280;41883;49.544;8.646;2023-03-14T08:00:03;98441.47;;;10.62;nan
55685;BME280;41883;49.544;8.646;2023-03-14T08:02:30;98443.31;;;10.61;nan
55685;BME280;41883;49.544;8.646;2023-03-14T08:04:55;98441.66;;;10.67;nan
55685;BME280;41883;49.544;8.646;2023-03-14T08:07:20;98446.34;;;10.72;nan
55685;BME280;41883;49.544;8.646;2023-03-14T08:09:45;98450.41;;;10.74;nan
55685;BME280;41883;49.544;8.646;2023-03-14T08:12:11;98449.59;;;10.74;nan
55685;BME280;41883;49.544;8.646;2023-03-14T08:14:36;98455.50;;;10.76;nan
55685;BME280;41883;49.544;8.646;2023-03-14T08:17:01;98458.78;;;10.78;nan
55685;BME280;41883;49.544;8.646;2023-03-14T08:19:26;98454.91;;;10.80;nan
55685;BME280;41883;49.544;8.646;2023-03-14T08:21:52;98463.44;;;10.82;nan
55685;BME280;41883;49.544;8.646;2023-03-14T08:24:17;98460.59;;;10.91;nan
55685;BME280;41883;49.544;8.646;2023-03-14T08:26:43;98469.94;;;10.93;nan
55685;BME280;41883;49.544;8.646;2023-03-14T08:29:08;98470.13;;;10.98;nan
55685;BME280;41883;49.544;8.646;2023-03-14T08:31:34;98470.13;;;11.05;nan
55685;BME280;41883;49.544;8.646;2023-03-14T08:33:59;98466.25;;;11.08;nan
55685;BME280;41883;49.544;8.646;2023-03-14T08:36:24;98476.66;;;11.09;nan
55685;BME280;41883;49.544;8.646;2023-03-14T08:38:50;98476.66;;;11.09;nan
55685;BME280;41883;49.544;8.646;2023-03-14T08:41:15;98478.44;;;11.15;nan
55685;BME280;41883;49.544;8.646;2023-03-14T08:43:40;98475.81;;;11.15;nan
55685;BME280;41883;49.544;8.646;2023-03-14T08:46:05;98480.47;;;11.20;nan
55685;BME280;41883;49.544;8.646;2023-03-14T08:48:31;98473.56;;;11.25;nan
55685;BME280;41883;49.544;8.646;2023-03-14T08:50:56;98475.78;;;11.35;nan
55685;BME280;41883;49.544;8.646;2023-03-14T08:53:22;98473.72;;;11.44;nan
55685;BME280;41883;49.544;8.646;2023-03-14T08:55:52;98480.63;;;11.52;nan
55685;BME280;41883;49.544;8.646;2023-03-14T08:58:17;98480.63;;;11.52;nan
55685;BME280;41883;49.544;8.646;2023-03-14T09:00:42;98481.44;;;11.59;nan
55685;BME280;41883;49.544;8.646;2023-03-14T09:03:07;98477.94;;;11.58;nan
55685;BME280;41883;49.544;8.646;2023-03-14T09:05:35;98475.69;;;11.68;nan
55685;BME280;41883;49.544;8.646;2023-03-14T09:08:00;98466.28;;;11.73;nan
55685;BME280;41883;49.544;8.646;2023-03-14T09:10:26;98472.00;;;11.69;nan
55685;BME280;41883;49.544;8.646;2023-03-14T09:12:51;98465.88;;;11.76;nan
55685;BME280;41883;49.544;8.646;2023-03-14T09:15:16;98471.97;;;11.83;nan
55685;BME280;41883;49.544;8.646;2023-03-14T09:17:42;98468.69;;;11.94;nan
55685;BME280;41883;49.544;8.646;2023-03-14T09:20:07;98466.75;;;12.15;nan
55685;BME280;41883;49.544;8.646;2023-03-14T09:22:33;98464.09;;;12.15;nan
55685;BME280;41883;49.544;8.646;2023-03-14T09:25:02;98456.53;;;12.18;nan
55685;BME280;41883;49.544;8.646;2023-03-14T09:27:31;98459.09;;;12.31;nan
55685;BME280;41883;49.544;8.646;2023-03-14T09:29:56;98469.50;;;12.33;nan
55685;BME280;41883;49.544;8.646;2023-03-14T09:32:21;98470.47;;;12.39;nan
55685;BME280;41883;49.544;8.646;2023-03-14T09:34:47;98460.03;;;12.44;nan
55685;BME280;41883;49.544;8.646;2023-03-14T09:37:12;98466.53;;;12.48;nan
55685;BME280;41883;49.544;8.646;2023-03-14T09:39:37;98468.09;;;12.56;nan
55685;BME280;41883;49.544;8.646;2023-03-14T09:42:04;98468.78;;;12.76;nan
55685;BME280;41883;49.544;8.646;2023-03-14T09:44:36;98463.72;;;12.68;nan
55685;BME280;41883;49.544;8.646;2023-03-14T09:47:04;98459.38;;;12.99;nan
55685;BME280;41883;49.544;8.646;2023-03-14T09:49:37;98462.00;;;13.30;nan
55685;BME280;41883;49.544;8.646;2023-03-14T09:52:11;98467.78;;;13.21;nan
55685;BME280;41883;49.544;8.646;2023-03-14T09:54:47;98468.19;;;13.17;nan
55685;BME280;41883;49.544;8.646;2023-03-14T09:57:15;98471.25;;;12.96;nan
55685;BME280;41883;49.544;8.646;2023-03-14T09:59:43;98485.41;;;12.90;nan
55685;BME280;41883;49.544;8.646;2023-03-14T10:04:44;98484.94;;;12.68;nan
55685;BME280;41883;49.544;8.646;2023-03-14T10:07:14;98476.94;;;12.49;nan
55685;BME280;41883;49.544;8.646;2023-03-14T10:09:42;98469.31;;;12.28;nan
55685;BME280;41883;49.544;8.646;2023-03-14T10:12:07;98485.41;;;12.33;nan
55685;BME280;41883;49.544;8.646;2023-03-14T10:14:34;98486.19;;;12.33;nan
55685;BME280;41883;49.544;8.646;2023-03-14T10:17:07;98483.41;;;12.22;nan
55685;BME280;41883;49.544;8.646;2023-03-14T10:19:33;98484.44;;;12.21;nan
55685;BME280;41883;49.544;8.646;2023-03-14T10:22:02;98487.28;;;12.26;nan
55685;BME280;41883;49.544;8.646;2023-03-14T10:24:30;98485.84;;;12.30;nan
55685;BME280;41883;49.544;8.646;2023-03-14T10:27:03;98487.25;;;12.32;nan
55685;BME280;41883;49.544;8.646;2023-03-14T10:29:30;98487.72;;;12.23;nan
55685;BME280;41883;49.544;8.646;2023-03-14T10:32:00;98487.34;;;12.06;nan
55685;BME280;41883;49.544;8.646;2023-03-14T10:34:32;98479.47;;;11.86;nan
55685;BME280;41883;49.544;8.646;2023-03-14T10:36:59;98481.38;;;11.72;nan
55685;BME280;41883;49.544;8.646;2023-03-14T10:39:32;98486.91;;;11.64;nan
55685;BME280;41883;49.544;8.646;2023-03-14T10:42:11;98489.72;;;11.69;nan
55685;BME280;41883;49.544;8.646;2023-03-14T10:44:38;98487.47;;;11.73;nan
55685;BME280;41883;49.544;8.646;2023-03-14T10:47:03;98482.41;;;11.71;nan
55685;BME280;41883;49.544;8.646;2023-03-14T10:49:30;98472.00;;;11.69;nan
55685;BME280;41883;49.544;8.646;2023-03-14T10:52:00;98490.16;;;11.66;nan
55685;BME280;41883;49.544;8.646;2023-03-14T10:54:29;98487.09;;;11.62;nan
55685;BME280;41883;49.544;8.646;2023-03-14T10:56:58;98484.88;;;11.59;nan
55685;BME280;41883;49.544;8.646;2023-03-14T10:59:24;98492.03;;;11.45;nan
55685;BME280;41883;49.544;8.646;2023-03-14T11:02:00;98496.78;;;11.23;nan
55685;BME280;41883;49.544;8.646;2023-03-14T11:09:38;98482.34;;;10.66;nan
55685;BME280;41883;49.544;8.646;2023-03-14T11:14:49;98500.81;;;10.46;nan
55685;BME280;41883;49.544;8.646;2023-03-14T11:17:21;98500.22;;;10.44;nan
55685;BME280;41883;49.544;8.646;2023-03-14T11:22:50;98509.16;;;10.43;nan
55685;BME280;41883;49.544;8.646;2023-03-14T11:25:32;98508.31;;;10.36;nan
55685;BME280;41883;49.544;8.646;2023-03-14T11:30:38;98512.78;;;10.35;nan
55685;BME280;41883;49.544;8.646;2023-03-14T11:33:14;98515.03;;;10.38;nan
55685;BME280;41883;49.544;8.646;2023-03-14T11:38:18;98523.34;;;10.29;nan
55685;BME280;41883;49.544;8.646;2023-03-14T11:40:44;98532.06;;;10.29;nan
55685;BME280;41883;49.544;8.646;2023-03-14T11:43:13;98540.38;;;10.26;nan
55685;BME280;41883;49.544;8.646;2023-03-14T11:45:41;98528.19;;;10.25;nan
55685;BME280;41883;49.544;8.646;2023-03-14T11:48:10;98539.75;;;10.24;nan
55685;BME280;41883;49.544;8.646;2023-03-14T11:50:39;98542.16;;;10.19;nan
55685;BME280;41883;49.544;8.646;2023-03-14T11:53:18;98546.22;;;10.15;nan
55685;BME280;41883;49.544;8.646;2023-03-14T11:55:45;98565.31;;;10.17;nan
55685;BME280;41883;49.544;8.646;2023-03-14T11:58:27;98587.69;;;10.21;nan
55685;BME280;41883;49.544;8.646;2023-03-14T12:00:54;98586.03;;;10.13;nan
55685;BME280;41883;49.544;8.646;2023-03-14T12:11:08;98639.13;;;9.90;nan
55685;BME280;41883;49.544;8.646;2023-03-14T12:13:36;98656.34;;;9.86;nan
55685;BME280;41883;49.544;8.646;2023-03-14T12:21:46;98699.75;;;9.77;nan
55685;BME280;41883;49.544;8.646;2023-03-14T12:24:17;98699.84;;;9.90;nan
55685;BME280;41883;49.544;8.646;2023-03-14T12:26:49;98704.44;;;10.10;nan
55685;BME280;41883;49.544;8.646;2023-03-14T12:29:16;98709.81;;;10.23;nan
55685;BME280;41883;49.544;8.646;2023-03-14T12:31:42;98728.56;;;10.28;nan
55685;BME280;41883;49.544;8.646;2023-03-14T13:27:30;98921.00;;;10.10;nan
55685;BME280;41883;49.544;8.646;2023-03-14T13:29:58;98928.66;;;9.83;nan
55685;BME280;41883;49.544;8.646;2023-03-14T13:32:30;98925.28;;;9.89;nan
55685;BME280;41883;49.544;8.646;2023-03-14T13:34:56;98946.16;;;10.06;nan
55685;BME280;41883;49.544;8.646;2023-03-14T14:04:14;99061.56;;;9.75;nan
55685;BME280;41883;49.544;8.646;2023-03-14T14:06:47;99060.44;;;9.25;nan
55685;BME280;41883;49.544;8.646;2023-03-14T14:09:15;99070.41;;;9.15;nan
55685;BME280;41883;49.544;8.646;2023-03-14T14:11:42;99084.47;;;9.30;nan
55685;BME280;41883;49.544;8.646;2023-03-14T14:14:10;99085.50;;;9.59;nan
55685;BME280;41883;49.544;8.646;2023-03-14T14:16:37;99096.97;;;9.81;nan
55685;BME280;41883;49.544;8.646;2023-03-14T14:19:03;99092.53;;;9.96;nan
55685;BME280;41883;49.544;8.646;2023-03-14T14:28:44;99115.28;;;9.97;nan
55685;BME280;41883;49.544;8.646;2023-03-14T14:31:18;99126.00;;;9.96;nan
55685;BME280;41883;49.544;8.646;2023-03-14T14:33:55;99136.78;;;9.94;nan
55685;BME280;41883;49.544;8.646;2023-03-14T14:36:25;99144.97;;;10.14;nan
55685;BME280;41883;49.544;8.646;2023-03-14T15:15:29;99241.34;;;10.18;nan
55685;BME280;41883;49.544;8.646;2023-03-14T15:17:54;99210.72;;;10.09;nan
55685;BME280;41883;49.544;8.646;2023-03-14T15:20:19;99212.53;;;9.94;nan
55685;BME280;41883;49.544;8.646;2023-03-14T15:22:52;99233.66;;;9.94;nan
55685;BME280;41883;49.544;8.646;2023-03-14T15:25:21;99229.63;;;9.83;nan
55685;BME280;41883;49.544;8.646;2023-03-14T15:27:46;99222.59;;;9.75;nan
55685;BME280;41883;49.544;8.646;2023-03-14T15:30:12;99222.56;;;9.61;nan
55685;BME280;41883;49.544;8.646;2023-03-14T15:32:43;99244.38;;;9.54;nan
55685;BME280;41883;49.544;8.646;2023-03-14T15:35:11;99239.53;;;9.58;nan
55685;BME280;41883;49.544;8.646;2023-03-14T15:37:39;99247.09;;;9.46;nan
55685;BME280;41883;49.544;8.646;2023-03-14T15:40:05;99246.88;;;9.48;nan
55685;BME280;41883;49.544;8.646;2023-03-14T15:42:37;99260.81;;;9.42;nan
55685;BME280;41883;49.544;8.646;2023-03-14T15:45:03;99259.16;;;9.41;nan
55685;BME280;41883;49.544;8.646;2023-03-14T15:47:30;99262.44;;;9.43;nan
55685;BME280;41883;49.544;8.646;2023-03-14T15:49:57;99249.53;;;9.48;nan
55685;BME280;41883;49.544;8.646;2023-03-14T15:52:25;99252.44;;;9.76;nan
55685;BME280;41883;49.544;8.646;2023-03-14T15:54:50;99260.25;;;10.07;nan
55685;BME280;41883;49.544;8.646;2023-03-14T16:24:10;99273.81;;;10.42;nan
55685;BME280;41883;49.544;8.646;2023-03-14T16:26:38;99298.22;;;10.29;nan
55685;BME280;41883;49.544;8.646;2023-03-14T16:29:04;99294.72;;;10.14;nan
55685;BME280;41883;49.544;8.646;2023-03-14T16:31:29;99298.94;;;10.00;nan
55685;BME280;41883;49.544;8.646;2023-03-14T16:33:57;99306.19;;;9.83;nan
55685;BME280;41883;49.544;8.646;2023-03-14T16:36:28;99307.47;;;9.64;nan
55685;BME280;41883;49.544;8.646;2023-03-14T16:38:54;99311.69;;;9.50;nan